Time;durP1;ratioP1;P1;durP2;ratioP2;P2;SDS_P1;SDS_P2;PMS_P1;PMS_P2;Temp;Humidity;BMP_temperature;BMP_pressure;BME280_temperature;BME280_humidity;BME280_pressure;Samples;Min_cycle;Max_cycle;Signal;HPM_P1;HPM_P2
2023/11/21 00:00:00;;;;;;;41.40;38.78;;;;;;;4.92;100.00;100880.34;4993950;28;20053;-82
2023/11/21 00:02:28;;;;;;;36.95;34.55;;;;;;;5.00;100.00;100892.69;4989760;28;20141;-82
2023/11/21 00:04:55;;;;;;;37.35;34.95;;;;;;;4.98;100.00;100892.00;4995581;28;20061;-82
2023/11/21 00:07:22;;;;;;;36.50;34.05;;;;;;;4.69;100.00;100897.75;4996397;28;20080;-82
2023/11/21 00:09:49;;;;;;;33.80;31.58;;;;;;;4.66;100.00;100888.41;4991732;28;20720;-83
2023/11/21 00:12:16;;;;;;;33.17;30.88;;;;;;;4.80;100.00;100894.81;4992551;28;20054;-83
2023/11/21 00:14:45;;;;;;;42.78;40.08;;;;;;;4.90;100.00;100884.09;4994526;28;20133;-83
2023/11/21 00:17:11;;;;;;;37.42;35.13;;;;;;;4.69;100.00;100890.69;4993638;28;20073;-83
2023/11/21 00:19:38;;;;;;;35.78;33.47;;;;;;;4.54;100.00;100890.50;4994163;28;20444;-82
2023/11/21 00:22:06;;;;;;;33.90;31.70;;;;;;;4.39;100.00;100894.75;4996563;28;20516;-82
2023/11/21 00:24:33;;;;;;;36.40;33.70;;;;;;;4.06;100.00;100899.91;4994648;28;20430;-83
2023/11/21 00:27:00;;;;;;;31.83;29.73;;;;;;;3.97;100.00;100902.69;4992204;28;20439;-82
2023/11/21 00:29:27;;;;;;;38.05;35.58;;;;;;;4.00;100.00;100894.47;4994208;28;20055;-82
2023/11/21 00:31:58;;;;;;;38.25;35.83;;;;;;;3.98;100.00;100907.75;4996435;28;20434;-83
2023/11/21 00:34:26;;;;;;;38.42;35.92;;;;;;;4.00;100.00;100902.38;4995519;28;20048;-82
2023/11/21 00:36:53;;;;;;;40.20;37.58;;;;;;;4.08;100.00;100905.81;4995007;28;20069;-83
2023/11/21 00:39:21;;;;;;;37.35;34.95;;;;;;;4.09;100.00;100896.16;4992010;28;20056;-83
2023/11/21 00:41:48;;;;;;;35.90;33.50;;;;;;;3.94;100.00;100892.47;4992622;28;20064;-82
2023/11/21 00:44:15;;;;;;;37.22;34.83;;;;;;;3.81;100.00;100885.88;4995098;28;20054;-82
2023/11/21 00:46:42;;;;;;;34.83;32.60;;;;;;;3.77;100.00;100891.56;4993433;28;20065;-82
2023/11/21 00:49:11;;;;;;;29.85;27.85;;;;;;;3.90;100.00;100900.69;4994318;28;20595;-82
2023/11/21 00:51:38;;;;;;;31.13;29.02;;;;;;;3.81;100.00;100879.75;4995221;28;20051;-82
2023/11/21 00:54:06;;;;;;;36.72;34.33;;;;;;;3.62;100.00;100879.03;4995145;28;20050;-82
2023/11/21 00:56:33;;;;;;;37.72;35.05;;;;;;;4.04;100.00;100891.34;4995200;28;20054;-82
2023/11/21 00:59:00;;;;;;;34.53;32.22;;;;;;;4.13;100.00;100892.22;4992047;28;20053;-82
2023/11/21 01:01:27;;;;;;;41.03;38.47;;;;;;;4.38;100.00;100900.97;4997568;28;20463;-83
2023/11/21 01:03:55;;;;;;;42.13;39.42;;;;;;;4.19;100.00;100880.25;4987146;28;20516;-83
2023/11/21 01:06:23;;;;;;;36.92;34.42;;;;;;;3.86;100.00;100891.44;4992047;28;20077;-82
2023/11/21 01:08:50;;;;;;;28.85;25.60;;;;;;;4.13;100.00;100893.03;4991945;28;20161;-82
2023/11/21 01:11:17;;;;;;;25.10;23.35;;;;;;;4.45;100.00;100888.84;4995647;28;20042;-83
2023/11/21 01:13:44;;;;;;;28.65;26.75;;;;;;;4.15;100.00;100879.75;4995085;28;20069;-82
2023/11/21 01:16:11;;;;;;;26.77;24.88;;;;;;;4.03;100.00;100887.09;4995069;28;20045;-82
2023/11/21 01:18:39;;;;;;;25.90;23.73;;;;;;;3.91;100.00;100877.84;4996921;28;20076;-83
2023/11/21 01:21:07;;;;;;;25.48;23.67;;;;;;;3.86;100.00;100883.56;4997522;28;20427;-82
2023/11/21 01:23:35;;;;;;;25.70;23.90;;;;;;;3.83;100.00;100893.56;4993285;28;20078;-82
2023/11/21 01:26:02;;;;;;;29.52;27.42;;;;;;;3.84;100.00;100893.44;4994935;28;20061;-82
2023/11/21 01:29:02;;;;;;;24.83;23.10;;;;;;;3.92;100.00;100881.28;4992635;28;20046;-77
2023/11/21 01:31:29;;;;;;;25.65;23.90;;;;;;;3.92;100.00;100873.41;4992575;28;20405;-77
2023/11/21 01:33:56;;;;;;;25.60;23.88;;;;;;;3.84;100.00;100864.53;4990112;28;20073;-77
2023/11/21 01:36:26;;;;;;;25.15;23.45;;;;;;;3.66;100.00;100854.09;4994579;28;20056;-77
2023/11/21 01:38:54;;;;;;;25.27;23.58;;;;;;;3.76;100.00;100850.53;4995641;28;20053;-77
2023/11/21 01:41:21;;;;;;;24.10;22.40;;;;;;;3.43;100.00;100847.75;4992911;28;20049;-77
2023/11/21 01:43:48;;;;;;;28.50;26.50;;;;;;;3.53;100.00;100845.00;4994607;28;20479;-76
2023/11/21 01:46:15;;;;;;;26.92;25.08;;;;;;;3.56;100.00;100850.75;4994624;28;20048;-77
2023/11/21 01:48:42;;;;;;;27.23;25.42;;;;;;;3.65;100.00;100857.69;4995635;28;20092;-77
2023/11/21 01:51:09;;;;;;;27.80;25.90;;;;;;;3.36;100.00;100857.19;4996160;28;20052;-82
2023/11/21 01:53:36;;;;;;;29.40;27.40;;;;;;;3.36;100.00;100854.56;4993062;28;20077;-82
2023/11/21 01:56:07;;;;;;;29.60;27.60;;;;;;;3.28;100.00;100859.78;4996945;28;20057;-83
2023/11/21 01:58:34;;;;;;;24.30;22.27;;;;;;;3.38;100.00;100863.94;4992182;28;20520;-82
2023/11/21 02:01:01;;;;;;;23.15;21.45;;;;;;;3.17;100.00;100861.69;4993950;28;20500;-82
2023/11/21 02:03:28;;;;;;;29.23;26.98;;;;;;;3.15;100.00;100862.84;4990626;28;20504;-82
2023/11/21 02:05:58;;;;;;;46.50;33.80;;;;;;;3.21;100.00;100854.34;4992388;28;20531;-82
2023/11/21 02:08:26;;;;;;;26.88;24.92;;;;;;;3.12;100.00;100847.41;4991102;28;20046;-82
2023/11/21 02:14:32;;;;;;;23.45;21.67;;;;;;;3.18;100.00;100857.28;4987125;28;20046;-82
2023/11/21 02:17:01;;;;;;;22.77;21.17;;;;;;;3.08;100.00;100853.91;4993886;28;20129;-82
2023/11/21 02:19:29;;;;;;;22.92;21.33;;;;;;;2.98;100.00;100851.38;4992865;28;20439;-82
2023/11/21 02:25:49;;;;;;;21.52;19.98;;;;;;;3.06;100.00;100861.13;4995982;28;20119;-77
2023/11/21 02:28:25;;;;;;;27.38;25.25;;;;;;;3.03;100.00;100854.38;4990519;28;20062;-76
2023/11/21 02:30:56;;;;;;;24.27;22.67;;;;;;;2.92;100.00;100850.19;4991616;28;20061;-77
2023/11/21 02:33:26;;;;;;;25.30;23.50;;;;;;;3.14;100.00;100853.31;4990661;28;20492;-77
2023/11/21 02:35:57;;;;;;;24.92;23.15;;;;;;;3.23;100.00;100852.38;4991909;28;20137;-77
2023/11/21 02:38:24;;;;;;;23.98;22.27;;;;;;;2.87;100.00;100856.88;4990168;28;20062;-77
2023/11/21 02:40:52;;;;;;;25.92;24.13;;;;;;;2.87;100.00;100844.56;4991344;28;20440;-76
2023/11/21 02:43:19;;;;;;;26.95;25.10;;;;;;;2.80;100.00;100845.34;4993714;28;20062;-77
2023/11/21 02:45:46;;;;;;;28.85;26.15;;;;;;;2.91;100.00;100851.19;4992161;28;20520;-77
2023/11/21 02:48:13;;;;;;;24.30;22.55;;;;;;;2.80;100.00;100843.53;4991250;28;20054;-81
2023/11/21 02:50:54;;;;;;;24.45;22.75;;;;;;;2.75;100.00;100837.91;4995071;28;20519;-76
2023/11/21 02:53:21;;;;;;;29.38;26.95;;;;;;;2.93;100.00;100843.16;4990478;28;20069;-77
2023/11/21 02:55:48;;;;;;;25.52;23.63;;;;;;;2.96;100.00;100848.09;4989648;28;20045;-82
2023/11/21 03:01:41;;;;;;;25.38;23.55;;;;;;;2.86;100.00;100850.81;4988799;28;20165;-82
2023/11/21 03:04:08;;;;;;;29.48;27.27;;;;;;;2.88;100.00;100854.13;4984725;28;21683;-82
2023/11/21 03:06:35;;;;;;;27.98;25.73;;;;;;;3.07;100.00;100850.47;4993816;28;20082;-82
2023/11/21 03:12:57;;;;;;;24.70;22.98;;;;;;;2.91;100.00;100847.75;4987745;28;20089;-77
2023/11/21 03:15:24;;;;;;;22.38;20.88;;;;;;;2.62;100.00;100843.56;4994503;28;20487;-82
2023/11/21 03:17:52;;;;;;;26.50;24.60;;;;;;;2.74;100.00;100847.59;4996391;28;20061;-82
2023/11/21 03:20:19;;;;;;;24.75;23.02;;;;;;;2.68;100.00;100844.75;4994384;28;20054;-82
2023/11/21 03:22:46;;;;;;;22.35;20.85;;;;;;;2.74;100.00;100852.84;4992880;28;20046;-83
2023/11/21 03:25:13;;;;;;;23.38;21.77;;;;;;;2.88;100.00;100850.66;4995646;28;20050;-82
2023/11/21 03:27:40;;;;;;;23.38;21.70;;;;;;;2.86;100.00;100850.81;4994466;28;20052;-82
2023/11/21 03:30:10;;;;;;;22.92;21.33;;;;;;;2.73;100.00;100851.22;4999088;28;20058;-82
2023/11/21 03:32:37;;;;;;;24.65;22.95;;;;;;;2.79;100.00;100857.66;4995437;28;20056;-82
2023/11/21 03:35:07;;;;;;;24.63;22.63;;;;;;;2.88;100.00;100845.44;4991222;28;20050;-82
2023/11/21 03:37:34;;;;;;;22.98;21.27;;;;;;;2.92;100.00;100859.88;4994140;28;20141;-82
2023/11/21 03:40:00;;;;;;;22.95;21.35;;;;;;;2.88;100.00;100863.78;4994375;28;20057;-82
2023/11/21 03:42:27;;;;;;;23.38;21.80;;;;;;;3.02;100.00;100851.91;4997382;28;20050;-82
2023/11/21 03:44:57;;;;;;;25.30;23.40;;;;;;;2.86;100.00;100850.00;4999544;28;20056;-81
2023/11/21 03:47:24;;;;;;;25.88;23.88;;;;;;;2.69;100.00;100844.63;4999813;28;20419;-82
2023/11/21 03:49:51;;;;;;;24.08;22.38;;;;;;;2.69;100.00;100864.75;4994419;28;20047;-82
2023/11/21 03:52:19;;;;;;;26.05;24.15;;;;;;;2.74;100.00;100870.38;4994381;28;20053;-82
2023/11/21 03:54:46;;;;;;;25.42;23.63;;;;;;;2.59;100.00;100864.84;4996478;28;20050;-82
2023/11/21 03:57:13;;;;;;;25.02;23.23;;;;;;;2.70;100.00;100866.44;4992601;28;20096;-82
2023/11/21 03:59:41;;;;;;;26.85;24.95;;;;;;;2.66;100.00;100865.06;4996057;28;20045;-82
2023/11/21 04:02:08;;;;;;;27.70;25.80;;;;;;;2.49;100.00;100864.91;4996467;28;20051;-82
2023/11/21 04:04:35;;;;;;;25.35;23.65;;;;;;;2.48;100.00;100865.06;4988029;28;20519;-82
2023/11/21 04:07:04;;;;;;;28.20;26.30;;;;;;;2.32;100.00;100863.09;4994164;28;20053;-82
2023/11/21 04:09:32;;;;;;;24.33;22.63;;;;;;;2.23;100.00;100862.19;4992689;28;20056;-81
2023/11/21 04:11:59;;;;;;;23.77;22.17;;;;;;;2.08;100.00;100862.84;4995725;28;20041;-82
2023/11/21 04:14:26;;;;;;;25.23;23.52;;;;;;;2.26;100.00;100867.16;4991630;28;20053;-82
2023/11/21 04:16:53;;;;;;;25.20;23.40;;;;;;;2.26;100.00;100867.16;4992490;28;20504;-82
2023/11/21 04:19:20;;;;;;;22.90;21.30;;;;;;;2.18;100.00;100867.06;4998588;28;20107;-82
2023/11/21 04:21:47;;;;;;;23.17;21.58;;;;;;;2.15;100.00;100861.28;4997978;28;20092;-82
2023/11/21 04:24:14;;;;;;;33.15;31.05;;;;;;;2.51;100.00;100864.75;4993065;28;20042;-83
2023/11/21 04:26:43;;;;;;;34.42;32.33;;;;;;;2.43;100.00;100869.94;4992771;28;20057;-82
2023/11/21 04:29:10;;;;;;;38.28;35.97;;;;;;;2.77;100.00;100851.72;4994468;28;20058;-82
2023/11/21 04:31:37;;;;;;;41.47;38.97;;;;;;;2.64;100.00;100861.78;4995649;28;20046;-82
2023/11/21 04:34:05;;;;;;;42.38;39.67;;;;;;;2.83;100.00;100864.22;4995001;28;20049;-82
2023/11/21 04:36:31;;;;;;;41.95;39.45;;;;;;;2.67;100.00;100851.81;4996073;28;20097;-82
2023/11/21 04:38:58;;;;;;;34.92;32.72;;;;;;;2.94;100.00;100871.88;4995880;28;20058;-82
2023/11/21 04:41:25;;;;;;;41.75;39.15;;;;;;;2.90;100.00;100872.31;4991879;28;20536;-82
2023/11/21 04:43:53;;;;;;;25.52;23.83;;;;;;;2.97;100.00;100873.38;4995044;28;20053;-82
2023/11/21 04:46:21;;;;;;;24.27;22.48;;;;;;;2.61;100.00;100865.53;4992539;28;20042;-82
2023/11/21 04:48:48;;;;;;;25.80;23.90;;;;;;;2.48;100.00;100876.41;4993416;28;20058;-82
2023/11/21 04:51:15;;;;;;;23.38;21.60;;;;;;;2.31;100.00;100879.00;4993669;28;20057;-82
2023/11/21 04:53:42;;;;;;;26.05;24.48;;;;;;;2.25;100.00;100889.09;4995088;28;20050;-82
2023/11/21 04:56:09;;;;;;;28.42;26.73;;;;;;;2.11;100.00;100873.84;4998128;28;20484;-82
2023/11/21 04:58:36;;;;;;;24.90;23.30;;;;;;;2.23;100.00;100882.34;4994863;28;20050;-82
2023/11/21 05:01:05;;;;;;;25.17;23.67;;;;;;;2.06;100.00;100876.13;4991974;28;20042;-82
2023/11/21 05:03:32;;;;;;;21.80;20.40;;;;;;;2.13;100.00;100879.78;4987871;28;20043;-82
2023/11/21 05:06:00;;;;;;;24.42;23.02;;;;;;;2.20;100.00;100885.25;4995387;28;20050;-82
2023/11/21 05:08:27;;;;;;;24.10;22.65;;;;;;;2.23;100.00;100880.53;4994027;28;20058;-82
2023/11/21 05:10:54;;;;;;;19.80;18.50;;;;;;;2.15;100.00;100879.63;4993168;28;20054;-82
2023/11/21 05:13:21;;;;;;;19.00;17.80;;;;;;;2.04;100.00;100878.88;4993573;28;20050;-82
2023/11/21 05:15:48;;;;;;;19.20;18.00;;;;;;;2.02;100.00;100880.78;4991372;28;20141;-82
2023/11/21 05:18:17;;;;;;;17.83;16.73;;;;;;;1.93;100.00;100886.09;4994517;28;20053;-82
2023/11/21 05:23:58;;;;;;;17.30;16.20;;;;;;;1.88;100.00;100876.06;4964718;28;20101;-77
2023/11/21 05:26:25;;;;;;;17.60;16.50;;;;;;;1.86;100.00;100875.38;4988597;28;20072;-77
2023/11/21 05:28:52;;;;;;;17.85;16.85;;;;;;;1.63;100.00;100888.00;4987535;28;20053;-77
2023/11/21 05:31:19;;;;;;;18.48;17.17;;;;;;;1.87;100.00;100877.00;4989475;28;20050;-77
2023/11/21 05:33:48;;;;;;;18.65;17.55;;;;;;;1.97;100.00;100874.38;4988566;28;20057;-77
2023/11/21 05:36:15;;;;;;;19.08;17.88;;;;;;;1.90;100.00;100879.34;4990592;28;20056;-77
2023/11/21 05:38:42;;;;;;;19.92;18.73;;;;;;;2.03;100.00;100876.41;4985888;28;20526;-76
2023/11/21 05:41:10;;;;;;;18.38;17.17;;;;;;;2.24;100.00;100882.22;4986986;28;20042;-77
2023/11/21 05:43:37;;;;;;;18.60;17.40;;;;;;;2.41;100.00;100885.81;4987646;28;20058;-77
2023/11/21 05:46:05;;;;;;;21.30;20.00;;;;;;;2.52;100.00;100888.22;4991756;28;20034;-77
2023/11/21 05:48:32;;;;;;;23.67;22.17;;;;;;;2.48;100.00;100883.41;4990012;28;20046;-77
2023/11/21 05:51:01;;;;;;;18.20;17.08;;;;;;;2.70;100.00;100892.66;4989150;28;20065;-77
2023/11/21 05:53:28;;;;;;;19.40;18.20;;;;;;;2.64;100.00;100898.50;4992232;28;20050;-77
2023/11/21 05:55:55;;;;;;;30.58;27.98;;;;;;;2.38;100.00;100891.34;4995204;28;20053;-77
2023/11/21 05:58:22;;;;;;;27.20;25.25;;;;;;;2.34;100.00;100902.28;4992268;28;20042;-77
2023/11/21 06:00:49;;;;;;;28.35;26.00;;;;;;;2.84;100.00;100907.03;4958923;28;20448;-77
2023/11/21 06:03:17;;;;;;;27.63;25.38;;;;;;;3.28;100.00;100902.63;4994578;28;20424;-76
2023/11/21 06:05:44;;;;;;;37.63;32.45;;;;;;;3.42;100.00;100915.19;4991196;28;20057;-77
2023/11/21 06:08:12;;;;;;;27.50;25.27;;;;;;;3.65;100.00;100912.03;4990797;28;20507;-77
2023/11/21 06:10:40;;;;;;;25.05;23.15;;;;;;;3.74;100.00;100918.16;4990285;28;20409;-77
2023/11/21 06:13:07;;;;;;;25.90;23.73;;;;;;;4.08;100.00;100913.72;4991580;28;20151;-77
2023/11/21 06:15:34;;;;;;;27.55;25.45;;;;;;;4.76;100.00;100931.16;4991716;28;20112;-77
2023/11/21 06:18:01;;;;;;;29.67;27.55;;;;;;;5.28;100.00;100932.66;4991434;28;20050;-77
2023/11/21 06:20:28;;;;;;;30.52;28.52;;;;;;;5.86;100.00;100915.72;4993143;28;20047;-77
2023/11/21 06:22:55;;;;;;;38.88;36.28;;;;;;;6.39;100.00;100924.75;4989783;28;20054;-77
2023/11/21 06:25:24;;;;;;;36.72;34.13;;;;;;;6.97;100.00;100924.38;4990920;28;20051;-76
2023/11/21 06:27:53;;;;;;;33.40;30.85;;;;;;;7.86;100.00;100922.69;4989781;28;20046;-77
2023/11/21 06:30:21;;;;;;;33.35;30.92;;;;;;;8.35;100.00;100913.31;4991052;28;20058;-77
2023/11/21 06:32:48;;;;;;;31.60;29.40;;;;;;;8.29;100.00;100914.06;4989646;28;20050;-83
2023/11/21 06:42:07;;;;;;;28.77;26.85;;;;;;;8.38;100.00;100921.75;4991517;28;20038;-83
2023/11/21 06:44:35;;;;;;;29.95;28.02;;;;;;;8.47;100.00;100914.50;4990620;28;20475;-83
2023/11/21 06:47:02;;;;;;;35.85;33.25;;;;;;;8.49;100.00;100921.25;4991804;28;20515;-83
2023/11/21 06:50:21;;;;;;;34.38;31.85;;;;;;;8.32;100.00;100922.47;4994028;28;20047;-77
2023/11/21 06:52:48;;;;;;;41.47;38.75;;;;;;;7.69;100.00;100915.97;4971081;28;20501;-83
2023/11/21 06:55:48;;;;;;;31.30;28.85;;;;;;;7.42;100.00;100920.84;4969731;28;20134;-77
2023/11/21 06:58:16;;;;;;;34.30;31.85;;;;;;;7.67;100.00;100917.97;4970311;28;20082;-83
2023/11/21 07:15:02;;;;;;;31.38;29.05;;;;;;;7.56;100.00;100900.72;5074118;27;20415;-83
2023/11/21 07:17:29;;;;;;;29.40;27.10;;;;;;;7.48;100.00;100898.19;4674189;28;10000525;-84
2023/11/21 07:19:56;;;;;;;29.90;27.80;;;;;;;7.58;100.00;100896.06;5021293;28;20045;-83
2023/11/21 07:22:23;;;;;;;29.95;27.95;;;;;;;7.92;100.00;100902.63;5025659;28;20133;-84
2023/11/21 07:24:50;;;;;;;30.92;28.83;;;;;;;9.15;100.00;100909.66;5027234;28;20053;-84
2023/11/21 07:27:18;;;;;;;27.83;25.92;;;;;;;10.04;100.00;100890.41;5027053;28;20478;-84
2023/11/21 07:29:45;;;;;;;28.08;26.17;;;;;;;10.63;100.00;100894.31;5023961;28;20065;-84
2023/11/21 07:32:14;;;;;;;26.08;24.35;;;;;;;10.40;100.00;100892.81;5023799;28;20049;-84
2023/11/21 07:34:42;;;;;;;26.45;24.65;;;;;;;10.86;100.00;100892.09;5024098;28;20049;-85
2023/11/21 07:37:09;;;;;;;28.90;27.00;;;;;;;10.91;100.00;100892.28;5024572;28;20049;-85
2023/11/21 07:39:36;;;;;;;27.27;25.48;;;;;;;11.26;100.00;100884.09;5026560;28;20046;-85
2023/11/21 07:42:04;;;;;;;28.55;26.65;;;;;;;11.48;100.00;100884.69;5022211;28;20056;-85
2023/11/21 07:44:31;;;;;;;31.98;29.77;;;;;;;11.69;100.00;100881.75;5008084;28;20544;-85
2023/11/21 07:46:58;;;;;;;29.98;27.88;;;;;;;12.16;100.00;100889.59;5009865;28;20332;-85
2023/11/21 07:57:08;;;;;;;26.55;24.65;;;;;;;11.62;100.00;100878.31;5042771;28;20057;-79
2023/11/21 07:59:36;;;;;;;23.63;22.02;;;;;;;11.91;100.00;100870.88;5032000;28;20041;-78
2023/11/21 08:02:04;;;;;;;23.10;21.60;;;;;;;12.02;100.00;100877.41;5044200;28;20057;-79
2023/11/21 08:04:32;;;;;;;22.10;20.60;;;;;;;12.14;100.00;100875.69;5039895;28;20056;-79
2023/11/21 08:06:58;;;;;;;25.02;23.33;;;;;;;11.92;100.00;100880.47;5040175;28;20521;-79
2023/11/21 08:09:25;;;;;;;22.85;21.35;;;;;;;11.70;100.00;100871.94;5037177;28;20060;-79
2023/11/21 08:11:53;;;;;;;24.40;22.70;;;;;;;11.88;100.00;100874.75;5038012;28;20566;-78
2023/11/21 08:14:20;;;;;;;22.20;20.80;;;;;;;12.06;100.00;100879.41;5035966;28;20057;-79
2023/11/21 08:16:48;;;;;;;22.77;21.38;;;;;;;11.78;100.00;100877.03;5026937;28;20277;-79
2023/11/21 08:19:16;;;;;;;24.70;22.98;;;;;;;11.58;100.00;100874.41;5026274;28;20100;-79
2023/11/21 08:21:43;;;;;;;21.23;19.92;;;;;;;11.77;100.00;100880.72;5028220;28;20526;-78
2023/11/21 08:24:10;;;;;;;23.02;21.52;;;;;;;11.79;100.00;100883.16;5033152;28;20048;-78
2023/11/21 08:26:37;;;;;;;22.20;20.80;;;;;;;11.82;100.00;100878.25;5029280;28;20132;-78
2023/11/21 08:29:06;;;;;;;22.98;21.48;;;;;;;12.51;100.00;100886.56;5027182;28;20120;-78
2023/11/21 08:31:33;;;;;;;22.27;20.88;;;;;;;13.50;100.00;100880.44;5026291;28;20139;-79
2023/11/21 08:34:02;;;;;;;23.30;21.73;;;;;;;14.41;100.00;100875.25;5024791;28;20045;-79
2023/11/21 08:36:31;;;;;;;24.58;22.67;;;;;;;15.06;100.00;100875.28;5030316;28;20549;-79
2023/11/21 08:38:58;;;;;;;22.02;20.63;;;;;;;14.89;100.00;100875.16;5028777;28;20170;-79
2023/11/21 08:41:27;;;;;;;22.35;20.80;;;;;;;14.43;100.00;100871.31;5030650;28;20160;-79
2023/11/21 08:43:55;;;;;;;21.90;20.50;;;;;;;14.59;100.00;100867.19;5028292;28;20510;-79
2023/11/21 08:46:22;;;;;;;22.60;21.10;;;;;;;13.59;100.00;100862.28;5023913;28;20049;-79
2023/11/21 08:48:52;;;;;;;25.17;21.38;;;;;;;13.92;100.00;100859.25;5011177;28;20054;-79
2023/11/21 08:51:20;;;;;;;22.27;20.88;;;;;;;13.85;100.00;100857.69;5012553;28;20482;-78
2023/11/21 08:53:47;;;;;;;22.30;20.80;;;;;;;13.13;100.00;100852.88;5013126;28;20045;-79
2023/11/21 08:56:15;;;;;;;21.63;20.23;;;;;;;13.29;100.00;100857.66;5012744;28;20426;-78
2023/11/21 08:58:42;;;;;;;22.10;20.60;;;;;;;13.39;100.00;100846.47;5013652;28;20053;-79
2023/11/21 09:01:09;;;;;;;22.10;20.60;;;;;;;13.52;100.00;100840.19;5008635;28;20507;-79
2023/11/21 09:03:36;;;;;;;22.08;20.58;;;;;;;13.22;100.00;100846.22;5013005;28;20042;-79
2023/11/21 09:06:04;;;;;;;22.42;20.83;;;;;;;13.44;100.00;100843.97;5010641;28;20053;-79
2023/11/21 09:08:32;;;;;;;23.00;21.40;;;;;;;13.74;100.00;100841.38;5010692;28;20588;-79
2023/11/21 09:10:59;;;;;;;22.40;20.80;;;;;;;14.18;100.00;100846.56;5009485;28;20053;-79
2023/11/21 09:13:26;;;;;;;23.60;21.90;;;;;;;14.85;100.00;100846.41;5010525;28;20515;-79
2023/11/21 09:15:53;;;;;;;22.42;20.92;;;;;;;15.19;100.00;100828.78;5009962;28;20064;-79
2023/11/21 09:18:20;;;;;;;23.05;21.65;;;;;;;15.42;100.00;100829.78;5011427;28;20455;-79
2023/11/21 09:20:47;;;;;;;21.77;20.48;;;;;;;16.19;100.00;100830.28;5014355;28;20060;-79
2023/11/21 09:23:14;;;;;;;22.10;20.60;;;;;;;16.06;100.00;100822.53;5010467;28;20053;-79
2023/11/21 09:25:45;;;;;;;22.42;20.92;;;;;;;15.93;100.00;100822.81;5010403;28;20071;-79
2023/11/21 09:28:12;;;;;;;24.60;23.00;;;;;;;16.11;100.00;100817.28;5012519;28;20136;-79
2023/11/21 09:30:39;;;;;;;24.30;22.70;;;;;;;16.80;100.00;100817.13;5012739;28;20050;-79
2023/11/21 09:33:08;;;;;;;23.92;22.42;;;;;;;16.78;100.00;100823.78;5011016;28;20057;-79
2023/11/21 09:35:35;;;;;;;23.40;21.90;;;;;;;16.79;100.00;100820.03;5010587;28;20133;-79
2023/11/21 09:38:05;;;;;;;23.00;21.50;;;;;;;16.10;100.00;100831.72;5016477;28;20057;-79
2023/11/21 09:40:32;;;;;;;22.90;21.40;;;;;;;16.87;100.00;100828.50;5010969;28;20105;-79
2023/11/21 09:43:07;;;;;;;24.05;22.45;;;;;;;17.01;100.00;100820.94;5013911;28;20077;-79
2023/11/21 09:45:36;;;;;;;27.20;25.30;;;;;;;17.85;100.00;100804.59;5014394;28;20584;-79
2023/11/21 09:48:05;;;;;;;27.40;25.15;;;;;;;18.45;100.00;100804.63;5014415;28;20050;-79
2023/11/21 09:50:34;;;;;;;27.48;25.27;;;;;;;18.24;100.00;100791.00;5013475;28;20424;-79
2023/11/21 09:53:14;;;;;;;23.10;21.40;;;;;;;18.12;100.00;100786.84;5012248;28;20085;-79
2023/11/21 09:55:44;;;;;;;24.92;23.23;;;;;;;18.89;100.00;100785.63;5012258;28;20057;-79
2023/11/21 09:58:13;;;;;;;25.02;23.02;;;;;;;18.68;100.00;100781.97;5013810;28;20065;-79
2023/11/21 10:00:41;;;;;;;25.35;23.48;;;;;;;19.18;100.00;100775.28;5012635;28;20050;-79
2023/11/21 10:03:09;;;;;;;24.30;22.60;;;;;;;18.94;100.00;100772.19;5006683;28;20073;-79
2023/11/21 10:05:36;;;;;;;23.00;21.40;;;;;;;18.93;100.00;100770.56;5014640;28;20068;-79
2023/11/21 10:08:06;;;;;;;22.75;21.17;;;;;;;18.25;100.00;100751.50;5012885;28;20140;-79
2023/11/21 10:10:34;;;;;;;21.45;19.95;;;;;;;18.80;100.00;100747.63;5013775;28;20045;-79
2023/11/21 10:13:06;;;;;;;21.00;19.50;;;;;;;18.12;100.00;100741.97;5011211;28;20792;-79
2023/11/21 10:15:35;;;;;;;21.50;20.00;;;;;;;18.27;100.00;100750.16;5012355;28;20093;-79
2023/11/21 10:18:09;;;;;;;32.15;30.35;;;;;;;17.78;100.00;100746.75;5009996;28;20675;-79
2023/11/21 10:20:37;;;;;;;27.50;25.90;;;;;;;17.42;100.00;100737.47;5012272;28;20046;-79
2023/11/21 10:23:07;;;;;;;27.50;25.80;;;;;;;17.02;100.00;100752.78;5011672;28;20053;-79
2023/11/21 10:25:36;;;;;;;30.60;28.80;;;;;;;17.21;100.00;100755.19;5009367;28;20136;-79
2023/11/21 10:28:05;;;;;;;29.15;27.45;;;;;;;17.18;100.00;100741.19;5010195;28;20053;-79
2023/11/21 10:30:36;;;;;;;28.85;27.20;;;;;;;17.28;100.00;100753.94;5009335;28;20410;-85
2023/11/21 10:33:04;;;;;;;27.60;25.90;;;;;;;17.35;100.00;100749.19;5009919;28;20145;-85
2023/11/21 10:35:50;;;;;;;31.13;29.23;;;;;;;18.03;100.00;100733.59;5011730;28;20617;-85
2023/11/21 10:38:17;;;;;;;23.40;21.80;;;;;;;18.35;100.00;100730.06;5010044;28;20081;-85
2023/11/21 10:40:46;;;;;;;28.40;26.63;;;;;;;18.97;100.00;100725.91;5010062;28;20042;-85
2023/11/21 10:43:14;;;;;;;32.47;30.48;;;;;;;17.92;100.00;100731.84;5006989;28;20081;-85
2023/11/21 10:45:44;;;;;;;31.88;30.08;;;;;;;17.75;100.00;100718.47;5012766;28;20494;-86
2023/11/21 10:48:16;;;;;;;25.10;23.50;;;;;;;18.11;100.00;100718.84;5012198;28;20064;-85
2023/11/21 10:50:44;;;;;;;30.70;28.80;;;;;;;18.55;100.00;100721.34;5013052;28;20454;-85
2023/11/21 10:53:12;;;;;;;32.40;30.40;;;;;;;18.90;100.00;100718.09;5010013;28;20506;-85
2023/11/21 10:55:40;;;;;;;30.02;28.13;;;;;;;17.87;100.00;100721.06;5009549;28;20048;-84
2023/11/21 10:58:10;;;;;;;30.75;28.75;;;;;;;17.74;100.00;100708.00;5007351;28;20045;-86
2023/11/21 11:00:40;;;;;;;34.50;32.30;;;;;;;20.51;100.00;100721.66;5006916;28;20045;-85
2023/11/21 11:03:13;;;;;;;38.97;36.58;;;;;;;21.10;93.80;100704.81;5004686;28;20038;-85
2023/11/21 11:05:51;;;;;;;32.40;30.20;;;;;;;21.21;94.12;100706.41;5011549;28;20326;-84
2023/11/21 11:08:20;;;;;;;34.80;32.50;;;;;;;19.75;100.00;100706.28;5010787;28;20499;-84
2023/11/21 11:10:47;;;;;;;34.05;31.95;;;;;;;20.18;100.00;100696.06;5008302;28;20046;-84
2023/11/21 11:13:15;;;;;;;33.42;31.33;;;;;;;19.01;100.00;100693.94;5010384;28;20042;-84
2023/11/21 11:15:43;;;;;;;35.53;33.33;;;;;;;17.78;100.00;100703.78;5009291;28;21425;-84
2023/11/21 11:18:13;;;;;;;39.17;36.72;;;;;;;17.00;100.00;100687.03;5013866;28;20480;-84
2023/11/21 11:20:42;;;;;;;41.00;38.10;;;;;;;19.54;100.00;100686.56;5009800;28;20133;-85
2023/11/21 11:23:30;;;;;;;38.47;36.08;;;;;;;19.65;100.00;100680.94;5011157;28;20100;-85
2023/11/21 11:26:10;;;;;;;34.03;31.73;;;;;;;19.67;100.00;100678.00;5012360;28;20057;-84
2023/11/21 11:28:46;;;;;;;31.42;29.33;;;;;;;19.55;100.00;100674.72;5012543;28;20041;-85
2023/11/21 11:31:34;;;;;;;34.47;31.98;;;;;;;18.42;100.00;100676.06;5012759;28;20053;-84
2023/11/21 11:34:15;;;;;;;36.50;34.20;;;;;;;19.59;100.00;100667.72;5011109;28;20633;-85
2023/11/21 11:36:49;;;;;;;32.88;30.77;;;;;;;20.07;100.00;100671.81;5007324;28;20050;-85
2023/11/21 11:39:29;;;;;;;38.53;36.22;;;;;;;20.31;100.00;100655.88;5008928;28;20060;-84
2023/11/21 11:41:58;;;;;;;35.60;33.40;;;;;;;19.57;100.00;100653.69;5008519;28;20580;-84
2023/11/21 11:44:51;;;;;;;35.65;33.45;;;;;;;19.09;100.00;100643.09;5007464;28;20498;-84
2023/11/21 11:47:20;;;;;;;33.65;31.55;;;;;;;19.83;100.00;100646.47;5010993;28;20057;-85
2023/11/21 11:50:03;;;;;;;35.90;33.63;;;;;;;20.52;100.00;100640.50;5009060;28;20042;-85
2023/11/21 11:52:38;;;;;;;36.90;34.70;;;;;;;20.62;100.00;100633.47;5009495;28;20569;-85
2023/11/21 11:55:07;;;;;;;39.92;37.42;;;;;;;19.34;100.00;100642.34;5010816;28;20056;-84
2023/11/21 11:57:35;;;;;;;32.78;30.67;;;;;;;20.15;100.00;100638.09;5011769;28;20050;-85
2023/11/21 12:03:26;;;;;;;36.60;34.30;;;;;;;21.06;96.16;100636.25;5026104;28;20634;-79